地図

経路データ

SID SEASON NUMBER BASIN SUBBASIN NAME ISO_TIME NATURE LAT LON WMO_WIND WMO_PRES WMO_AGENCY TRACK_TYPE DIST2LAND LANDFALL IFLAG USA_AGENCY USA_ATCF_ID USA_LAT USA_LON USA_RECORD USA_STATUS USA_WIND USA_PRES USA_SSHS USA_R34_NE USA_R34_SE USA_R34_SW USA_R34_NW USA_R50_NE USA_R50_SE USA_R50_SW USA_R50_NW USA_R64_NE USA_R64_SE USA_R64_SW USA_R64_NW USA_POCI USA_ROCI USA_RMW USA_EYE TOKYO_LAT TOKYO_LON TOKYO_GRADE TOKYO_WIND TOKYO_PRES TOKYO_R50_DIR TOKYO_R50_LONG TOKYO_R50_SHORT TOKYO_R30_DIR TOKYO_R30_LONG TOKYO_R30_SHORT TOKYO_LAND CMA_LAT CMA_LON CMA_CAT CMA_WIND CMA_PRES HKO_LAT HKO_LON HKO_CAT HKO_WIND HKO_PRES NEWDELHI_LAT NEWDELHI_LON NEWDELHI_GRADE NEWDELHI_WIND NEWDELHI_PRES NEWDELHI_CI NEWDELHI_DP NEWDELHI_POCI REUNION_LAT REUNION_LON REUNION_TYPE REUNION_WIND REUNION_PRES REUNION_TNUM REUNION_CI REUNION_RMW REUNION_R34_NE REUNION_R34_SE REUNION_R34_SW REUNION_R34_NW REUNION_R50_NE REUNION_R50_SE REUNION_R50_SW REUNION_R50_NW REUNION_R64_NE REUNION_R64_SE REUNION_R64_SW REUNION_R64_NW BOM_LAT BOM_LON BOM_TYPE BOM_WIND BOM_PRES BOM_TNUM BOM_CI BOM_RMW BOM_R34_NE BOM_R34_SE BOM_R34_SW BOM_R34_NW BOM_R50_NE BOM_R50_SE BOM_R50_SW BOM_R50_NW BOM_R64_NE BOM_R64_SE BOM_R64_SW BOM_R64_NW BOM_ROCI BOM_POCI BOM_EYE BOM_POS_METHOD BOM_PRES_METHOD NADI_LAT NADI_LON NADI_CAT NADI_WIND NADI_PRES WELLINGTON_LAT WELLINGTON_LON WELLINGTON_WIND WELLINGTON_PRES DS824_LAT DS824_LON DS824_STAGE DS824_WIND DS824_PRES TD9636_LAT TD9636_LON TD9636_STAGE TD9636_WIND TD9636_PRES TD9635_LAT TD9635_LON TD9635_WIND TD9635_PRES TD9635_ROCI NEUMANN_LAT NEUMANN_LON NEUMANN_CLASS NEUMANN_WIND NEUMANN_PRES MLC_LAT MLC_LON MLC_CLASS MLC_WIND MLC_PRES USA_GUST BOM_GUST BOM_GUST_PER REUNION_GUST REUNION_GUST_PER USA_SEAHGT USA_SEARAD_NE USA_SEARAD_SE USA_SEARAD_SW USA_SEARAD_NW STORM_SPEED STORM_DIR
1996299N11121 1996 103 WP MM NOT_NAMED 1996-10-24 12:00:00 NR 10.5000 121.000 main 99 99 O_____________ jtwc_wp WP341996 10.5000 121.000 15 -1 13 226
1996299N11121 1996 103 WP MM NOT_NAMED 1996-10-24 15:00:00 NR 10.0600 120.532 main 98 86 P_____________ WP341996 10.0600 120.532 15 -1 13 231
1996299N11121 1996 103 WP MM NOT_NAMED 1996-10-24 18:00:00 NR 9.70000 120.000 main 89 69 O_____________ jtwc_wp WP341996 9.70000 120.000 15 -1 13 243
1996299N11121 1996 103 WP MM NOT_NAMED 1996-10-24 21:00:00 NR 9.47004 119.365 main 69 24 P_____________ WP341996 9.47004 119.365 15 -1 13 253
1996299N11121 1996 103 WP MM NOT_NAMED 1996-10-25 00:00:00 NR 9.30000 118.700 main 24 0 O_____________ jtwc_wp WP341996 9.30000 118.700 15 -1 13 253
1996299N11121 1996 103 WP MM NOT_NAMED 1996-10-25 03:00:00 NR 9.08483 118.100 main 0 0 P_____________ WP341996 9.08483 118.100 15 -1 13 251
1996299N11121 1996 103 WP MM NOT_NAMED 1996-10-25 06:00:00 NR 8.90000 117.500 main 0 0 O_____________ jtwc_wp WP341996 8.90000 117.500 15 -1 13 257
1996299N11121 1996 103 WP MM NOT_NAMED 1996-10-25 09:00:00 NR 8.79243 116.858 main 49 49 P_____________ WP341996 8.79243 116.858 15 -1 13 261
1996299N11121 1996 103 WP MM NOT_NAMED 1996-10-25 12:00:00 NR 8.70000 116.200 main 118 118 O_____________ jtwc_wp WP341996 8.70000 116.200 15 -1 13 260
1996299N11121 1996 103 WP MM NOT_NAMED 1996-10-25 15:00:00 NR 8.55743 115.543 main 190 188 P_____________ WP341996 8.55743 115.543 15 -1 13 257
1996299N11121 1996 103 WP MM NOT_NAMED 1996-10-25 18:00:00 NR 8.40000 114.900 main 253 253 O_____________ jtwc_wp WP341996 8.40000 114.900 15 -1 13 257
1996299N11121 1996 103 WP MM NOT_NAMED 1996-10-25 21:00:00 NR 8.25747 114.270 main 307 307 P_____________ WP341996 8.25747 114.270 15 -1 12 256
1996299N11121 1996 103 WP MM NOT_NAMED 1996-10-26 00:00:00 NR 8.10000 113.700 main 346 346 O_____________ jtwc_wp WP341996 8.10000 113.700 15 -1 11 251
1996299N11121 1996 103 WP MM NOT_NAMED 1996-10-26 03:00:00 NR 7.89992 113.213 main 370 368 P_____________ WP341996 7.89992 113.213 15 -1 10 246
1996299N11121 1996 103 WP MM NOT_NAMED 1996-10-26 06:00:00 NR 7.70000 112.800 main 371 365 O_____________ jtwc_wp WP341996 7.70000 112.800 15 -1 9 246
1996299N11121 1996 103 WP MM NOT_NAMED 1996-10-26 09:00:00 NR 7.54995 112.428 main 370 370 P_____________ WP341996 7.54995 112.428 15 -1 8 247
1996299N11121 1996 103 WP MM NOT_NAMED 1996-10-26 12:00:00 NR 7.40000 112.100 main 377 374 O_____________ jtwc_wp WP341996 7.40000 112.100 15 -1 7 241
1996299N11121 1996 103 WP MM NOT_NAMED 1996-10-26 15:00:00 NR 7.20746 111.793 main 379 378 P_____________ WP341996 7.20746 111.793 15 -1 7 236
1996299N11121 1996 103 WP MM NOT_NAMED 1996-10-26 18:00:00 NR 7.00000 111.500 main 385 385 O_____________ jtwc_wp WP341996 7.00000 111.500 15 -1 7 235
1996299N11121 1996 103 WP MM NOT_NAMED 1996-10-26 21:00:00 NR 6.79248 111.200 main 396 396 P_____________ WP341996 6.79248 111.200 17 -1 7 236
1996299N11121 1996 103 WP MM NOT_NAMED 1996-10-27 00:00:00 NR 6.60000 110.900 main 401 370 O_____________ jtwc_wp WP341996 6.60000 110.900 20 -1 7 240
1996299N11121 1996 103 WP MM NOT_NAMED 1996-10-27 03:00:00 NR 6.44997 110.608 main 362 331 P_____________ WP341996 6.44997 110.608 22 -1 7 243
1996299N11121 1996 103 WP MM NOT_NAMED 1996-10-27 06:00:00 NR 6.30000 110.300 main 331 292 O_____________ jtwc_wp WP341996 6.30000 110.300 25 -1 7 240
1996299N11121 1996 103 WP MM NOT_NAMED 1996-10-27 09:00:00 NR 6.08496 109.972 main 292 247 P_____________ WP341996 6.08496 109.972 27 -1 8 240
1996299N11121 1996 103 WP MM NOT_NAMED 1996-10-27 12:00:00 NR 5.90000 109.600 main 247 215 O_____________ jtwc_wp WP341996 5.90000 109.600 30 -1 8 252
1996299N11121 1996 103 WP MM NOT_NAMED 1996-10-27 15:00:00 NR 5.82748 109.173 main 215 195 P_____________ WP341996 5.82748 109.173 30 -1 9 264
1996299N11121 1996 103 WP MM NOT_NAMED 1996-10-27 18:00:00 NR 5.80000 108.700 main 195 179 O_____________ jtwc_wp WP341996 5.80000 108.700 30 -1 10 264
1996299N11121 1996 103 WP MM NOT_NAMED 1996-10-27 21:00:00 NR 5.73496 108.215 main 179 179 P_____________ WP341996 5.73496 108.215 27 -1 10 264
1996299N11121 1996 103 WP MM NOT_NAMED 1996-10-28 00:00:00 NR 5.70000 107.700 main 184 184 O_____________ jtwc_wp WP341996 5.70000 107.700 25 -1 11 270
1996299N11121 1996 103 WP MM NOT_NAMED 1996-10-28 03:00:00 NR 5.72747 107.158 main 205 205 P_____________ WP341996 5.72747 107.158 25 -1 11 275
1996299N11121 1996 103 WP MM NOT_NAMED 1996-10-28 06:00:00 NR 5.80000 106.600 main 252 252 O_____________ jtwc_wp WP341996 5.80000 106.600 25 -1 11 277
1996299N11121 1996 103 WP MM NOT_NAMED 1996-10-28 09:00:00 NR 5.86995 106.050 main 307 268 P_____________ WP341996 5.86995 106.050 25 -1 11 280
1996299N11121 1996 103 WP MM NOT_NAMED 1996-10-28 12:00:00 NR 6.00000 105.500 main 268 223 O_____________ jtwc_wp WP341996 6.00000 105.500 25 -1 12 286
1996299N11121 1996 103 WP MM NOT_NAMED 1996-10-28 15:00:00 NR 6.19003 104.920 main 218 189 P_____________ WP341996 6.19003 104.920 25 -1 12 295
1996299N11121 1996 103 WP MM NOT_NAMED 1996-10-28 18:00:00 NR 6.50000 104.400 main 189 181 O_____________ jtwc_wp WP341996 6.50000 104.400 25 -1 12 310
1996299N11121 1996 103 WP MM NOT_NAMED 1996-10-28 21:00:00 NR 6.95494 104.005 main 201 188 P_____________ WP341996 6.95494 104.005 25 -1 12 325
1996299N11121 1996 103 WP MM NOT_NAMED 1996-10-29 00:00:00 NR 7.50000 103.700 main 188 168 O_____________ jtwc_wp WP341996 7.50000 103.700 25 -1 13 333
1996299N11121 1996 103 WP MM NOT_NAMED 1996-10-29 03:00:00 NR 8.05746 103.427 main 172 168 P_____________ WP341996 8.05746 103.427 25 -1 12 336
1996299N11121 1996 103 WP MM NOT_NAMED 1996-10-29 06:00:00 NR 8.60000 103.200 main 177 176 O_____________ jtwc_wp WP341996 8.60000 103.200 25 -1 11 337
1996299N11121 1996 103 WP MM NOT_NAMED 1996-10-29 09:00:00 NR 9.06496 103.000 main 170 142 P_____________ WP341996 9.06496 103.000 25 -1 10 336
1996299N11121 1996 103 WP MM NOT_NAMED 1996-10-29 12:00:00 NR 9.50000 102.800 main 142 124 O_____________ jtwc_wp WP341996 9.50000 102.800 25 -1 10 335
1996299N11121 1996 103 WP MM NOT_NAMED 1996-10-29 15:00:00 NR 9.97245 102.572 main 114 101 P_____________ WP341996 9.97245 102.572 25 -1 10 331
1996299N11121 1996 103 WP MM NOT_NAMED 1996-10-29 18:00:00 NR 10.4000 102.300 main 103 98 O_____________ jtwc_wp WP341996 10.4000 102.300 25 -1 10 323
1996299N11121 1996 103 WP MM NOT_NAMED 1996-10-29 21:00:00 NR 10.7524 101.980 main 120 120 P_____________ WP341996 10.7524 101.980 25 -1 9 311
1996299N11121 1996 103 WP MM NOT_NAMED 1996-10-30 00:00:00 NR 11.0000 101.600 main 154 150 O_____________ jtwc_wp WP341996 11.0000 101.600 25 -1 9 296
1996299N11121 1996 103 WP MM NOT_NAMED 1996-10-30 03:00:00 NR 11.1299 101.180 main 169 120 P_____________ WP341996 11.1299 101.180 22 -1 9 283
1996299N11121 1996 103 WP MM NOT_NAMED 1996-10-30 06:00:00 NR 11.2000 100.700 main 120 65 O_____________ jtwc_wp WP341996 11.2000 100.700 20 -1 10 279
1996299N11121 1996 103 WP MM NOT_NAMED 1996-10-30 09:00:00 NR 11.2924 100.180 main 65 0 P_____________ WP341996 11.2924 100.180 17 -1 11 281
1996299N11121 1996 103 NI BB NOT_NAMED 1996-10-30 12:00:00 NR 11.4000 99.6000 main 0 0 O_____________ jtwc_wp WP341996 11.4000 99.6000 15 -1 12 280
1996299N11121 1996 103 NI BB NOT_NAMED 1996-10-30 15:00:00 NR 11.5126 98.9424 main 0 0 P_____________ WP341996 11.5126 98.9424 17 -1 13 283
1996299N11121 1996 103 NI BB NOT_NAMED 1996-10-30 18:00:00 NR 11.7000 98.3000 main 31 31 O_____________ jtwc_wp WP341996 11.7000 98.3000 20 -1 13 293
1996299N11121 1996 103 NI BB NOT_NAMED 1996-10-30 21:00:00 NR 11.9974 97.7475 main 87 87 P_____________ WP341996 11.9974 97.7475 22 -1 12 306
1996299N11121 1996 103 NI BB NOT_NAMED 1996-10-31 00:00:00 NR 12.4000 97.3000 main 141 141 O_____________ jtwc_wp WP341996 12.4000 97.3000 25 -1 12 316
1996299N11121 1996 103 NI BB NOT_NAMED 1996-10-31 03:00:00 NR 12.8624 96.8879 main 151 151 P_____________ WP341996 12.8624 96.8879 25 -1 12 330
1996299N11121 1996 103 NI BB NOT_NAMED 1996-10-31 06:00:00 NR 13.4000 96.7000 main 153 133 O_____________ jtwc_wp WP341996 13.4000 96.7000 25 -1 11 358
1996299N11121 1996 103 NI BB NOT_NAMED 1996-10-31 09:00:00 NR 13.9925 96.8521 main 124 65 P_____________ WP341996 13.9925 96.8521 22 -1 13 22
1996299N11121 1996 103 NI BB NOT_NAMED 1996-10-31 12:00:00 NR 14.6000 97.2000 main 65 31 O_____________ jtwc_wp WP341996 14.6000 97.2000 20 -1 14 30
1996299N11121 1996 103 NI BB NOT_NAMED 1996-10-31 15:00:00 NR 15.1651 97.5574 main 15 0 P_____________ WP341996 15.1651 97.5574 17 -1 13 32
1996299N11121 1996 103 NI BB NOT_NAMED 1996-10-31 18:00:00 NR 15.7000 97.9000 main 0 O_____________ jtwc_wp WP341996 15.7000 97.9000 15 -1 13 32

デジタル台風データ・検索

IBTrACS Databaseについて

本データベースは、米国NOAAが公開する1842年以降の世界の熱帯低気圧のベストトラックデータアーカイブInternational Best Track Archive for Climate Stewardship (IBTrACS)を、ウェブで閲覧しやすい形式に変換したものです。

最終更新日:2021-10-08